createdAt,value
2018-04-29T00:01:10.903Z,75.50
2018-04-29T00:03:14.237Z,74.60
2018-04-29T00:05:17.545Z,77.80
2018-04-29T00:07:20.900Z,75.00
2018-04-29T00:09:24.246Z,76.00
2018-04-29T00:11:27.585Z,81.00
2018-04-29T00:13:30.923Z,81.40
2018-04-29T00:15:35.023Z,82.40
2018-04-29T00:17:38.382Z,82.30
2018-04-29T00:19:41.726Z,78.90
2018-04-29T00:21:45.069Z,78.70
2018-04-29T00:23:48.421Z,82.00
2018-04-29T00:25:52.498Z,80.90
2018-04-29T00:27:56.610Z,82.60
2018-04-29T00:29:59.940Z,81.40
2018-04-29T00:32:03.261Z,82.80
2018-04-29T00:34:06.608Z,78.20
2018-04-29T00:36:10.732Z,79.70
2018-04-29T00:38:14.077Z,79.60
2018-04-29T00:40:17.400Z,84.10
2018-04-29T00:42:20.737Z,84.90
2018-04-29T00:44:24.105Z,80.80
2018-04-29T00:46:27.447Z,84.50
2018-04-29T00:48:31.580Z,84.40
2018-04-29T00:50:35.677Z,83.80
2018-04-29T00:52:38.997Z,83.90
2018-04-29T00:54:42.329Z,84.80
2018-04-29T00:56:45.640Z,82.10
2018-04-29T00:58:48.977Z,81.90
2018-04-29T01:00:52.302Z,83.20
2018-04-29T01:02:55.619Z,83.10
2018-04-29T01:04:58.931Z,87.40
2018-04-29T01:07:03.023Z,82.80
2018-04-29T01:09:06.402Z,82.80
2018-04-29T01:11:10.512Z,82.10
2018-04-29T01:13:14.634Z,81.70
2018-04-29T01:15:17.946Z,81.80
2018-04-29T01:17:22.036Z,81.40
2018-04-29T01:19:25.406Z,81.40
2018-04-29T01:21:28.740Z,84.60
2018-04-29T01:23:32.815Z,81.20
2018-04-29T01:25:36.126Z,81.20
2018-04-29T01:27:40.194Z,81.80
2018-04-29T01:29:43.526Z,81.30
2018-04-29T01:31:47.616Z,86.10
2018-04-29T01:33:50.933Z,85.30
2018-04-29T01:35:54.240Z,81.80
2018-04-29T01:37:57.567Z,86.80
2018-04-29T01:40:00.885Z,81.90
2018-04-29T01:42:04.197Z,82.40
2018-04-29T01:44:08.271Z,82.10
2018-04-29T01:46:11.596Z,82.10
2018-04-29T01:48:14.953Z,83.30
2018-04-29T01:50:18.284Z,82.10
2018-04-29T01:52:22.358Z,83.30
2018-04-29T01:54:25.705Z,83.20
2018-04-29T01:56:29.027Z,82.40
2018-04-29T01:58:32.334Z,86.10
2018-04-29T02:00:35.652Z,82.10
2018-04-29T02:02:38.980Z,81.70
2018-04-29T02:04:42.325Z,81.80
2018-04-29T02:06:46.407Z,82.00
2018-04-29T02:08:49.745Z,82.10
2018-04-29T02:10:53.092Z,85.70
2018-04-29T02:12:56.400Z,81.90
2018-04-29T02:15:01.482Z,81.70
2018-04-29T02:17:06.081Z,81.40
2018-04-29T02:19:09.488Z,80.30
2018-04-29T02:21:12.838Z,80.50
2018-04-29T02:23:16.957Z,81.10
2018-04-29T02:25:20.339Z,80.80
2018-04-29T02:27:23.707Z,80.80
2018-04-29T02:29:27.033Z,82.00
2018-04-29T02:31:30.402Z,81.20
2018-04-29T02:33:33.723Z,80.90
2018-04-29T02:35:37.046Z,82.00
2018-04-29T02:37:40.358Z,82.30
2018-04-29T02:39:43.820Z,81.70
2018-04-29T02:41:47.150Z,82.80
2018-04-29T02:43:50.485Z,82.50
2018-04-29T02:45:53.819Z,82.60
2018-04-29T02:47:57.157Z,86.90
2018-04-29T02:50:01.272Z,82.50
2018-04-29T02:52:04.632Z,83.00
2018-04-29T02:54:08.002Z,83.30
2018-04-29T02:56:12.117Z,83.30
2018-04-29T02:58:15.437Z,82.30
2018-04-29T03:00:18.793Z,83.00
2018-04-29T03:02:22.145Z,83.30
2018-04-29T03:04:25.459Z,86.80
2018-04-29T03:06:28.769Z,83.30
2018-04-29T03:08:32.110Z,82.70
2018-04-29T03:10:36.222Z,83.30
2018-04-29T03:12:39.530Z,83.20
2018-04-29T03:14:42.866Z,82.30
2018-04-29T03:16:46.197Z,82.50
2018-04-29T03:18:49.542Z,82.50
2018-04-29T03:20:52.861Z,82.10
2018-04-29T03:22:56.940Z,82.90
2018-04-29T03:25:00.314Z,83.10
2018-04-29T03:27:04.403Z,83.30
2018-04-29T03:29:07.732Z,82.70
2018-04-29T03:31:11.067Z,82.40
2018-04-29T03:33:14.383Z,83.00
2018-04-29T03:35:17.749Z,82.80
2018-04-29T03:37:21.085Z,86.90
2018-04-29T03:39:24.433Z,86.80
2018-04-29T03:41:27.765Z,83.70
2018-04-29T03:43:31.079Z,83.70
2018-04-29T03:45:34.438Z,84.30
2018-04-29T03:47:37.760Z,83.90
2018-04-29T03:49:41.084Z,84.10
2018-04-29T03:51:44.424Z,84.00
2018-04-29T03:53:47.738Z,84.30
2018-04-29T03:55:51.095Z,84.30
2018-04-29T03:58:06.235Z,84.40
2018-04-29T04:00:21.448Z,87.80
2018-04-29T04:02:37.363Z,84.10
2018-04-29T04:04:40.661Z,84.10
2018-04-29T04:06:44.744Z,84.60
2018-04-29T04:08:48.867Z,84.20
2018-04-29T04:10:52.953Z,84.80
2018-04-29T04:12:57.079Z,84.70
2018-04-29T04:15:00.399Z,85.50
2018-04-29T04:17:03.732Z,84.10
2018-04-29T04:19:07.047Z,84.30
2018-04-29T04:21:11.157Z,89.30
2018-04-29T04:23:14.497Z,89.30
2018-04-29T04:25:17.821Z,85.40
2018-04-29T04:27:21.136Z,84.40
2018-04-29T04:29:24.440Z,83.90
2018-04-29T04:31:27.788Z,85.20
2018-04-29T04:33:31.093Z,88.30
2018-04-29T04:35:34.446Z,84.90
2018-04-29T04:37:37.758Z,89.60
2018-04-29T04:39:41.080Z,85.60
2018-04-29T04:41:44.390Z,87.50
2018-04-29T04:43:48.465Z,91.10
2018-04-29T04:45:51.796Z,91.10
2018-04-29T04:47:55.105Z,89.20
2018-04-29T04:49:58.424Z,89.10
2018-04-29T04:52:01.732Z,89.50
2018-04-29T04:54:05.042Z,92.20
2018-04-29T04:56:09.151Z,93.40
2018-04-29T04:58:13.299Z,92.60
2018-04-29T05:00:17.343Z,90.90
2018-04-29T05:02:20.657Z,91.00
2018-04-29T05:04:24.744Z,93.00
2018-04-29T05:06:28.080Z,93.20
2018-04-29T05:08:31.383Z,93.10
2018-04-29T05:10:34.772Z,93.00
2018-04-29T05:12:38.095Z,91.10
2018-04-29T05:14:41.406Z,91.00
2018-04-29T05:16:44.719Z,91.90
2018-04-29T05:18:48.063Z,91.10
2018-04-29T05:20:51.405Z,91.00
2018-04-29T05:22:55.483Z,90.90
2018-04-29T05:24:58.808Z,91.00
2018-04-29T05:27:02.167Z,92.70
2018-04-29T05:29:05.476Z,91.20
2018-04-29T05:31:09.590Z,92.40
2018-04-29T05:33:12.932Z,92.50
2018-04-29T05:35:16.305Z,92.80
2018-04-29T05:37:19.595Z,91.10
2018-04-29T05:39:22.932Z,91.10
2018-04-29T05:41:26.276Z,93.00
2018-04-29T05:43:29.622Z,91.10
2018-04-29T05:45:32.946Z,90.70
2018-04-29T05:47:36.264Z,90.80
2018-04-29T05:49:39.603Z,92.80
2018-04-29T05:51:43.703Z,92.30
2018-04-29T05:53:47.030Z,92.70
2018-04-29T05:55:50.423Z,92.60
2018-04-29T05:57:53.754Z,90.60
2018-04-29T05:59:57.068Z,90.50
2018-04-29T06:02:00.399Z,90.60
2018-04-29T06:04:03.748Z,91.10
2018-04-29T06:06:07.119Z,91.00
2018-04-29T06:08:10.458Z,92.90
2018-04-29T06:10:14.644Z,90.80
2018-04-29T06:12:18.069Z,92.80
2018-04-29T06:14:21.396Z,92.80
2018-04-29T06:16:24.800Z,91.20
2018-04-29T06:18:28.127Z,92.80
2018-04-29T06:20:32.298Z,92.70
2018-04-29T06:22:35.563Z,92.90
2018-04-29T06:24:38.893Z,90.90
2018-04-29T06:26:43.009Z,91.40
2018-04-29T06:28:46.327Z,91.30
2018-04-29T06:30:50.435Z,93.80
2018-04-29T06:32:53.782Z,93.30
2018-04-29T06:34:57.121Z,91.70
2018-04-29T06:37:00.453Z,92.50
2018-04-29T06:39:03.809Z,94.40
2018-04-29T06:41:07.201Z,93.70
2018-04-29T06:43:10.549Z,91.00
2018-04-29T06:45:13.899Z,93.20
2018-04-29T06:47:17.213Z,92.90
2018-04-29T06:49:20.571Z,93.00
2018-04-29T06:51:23.941Z,91.50
2018-04-29T06:53:28.053Z,91.10
2018-04-29T06:55:32.146Z,93.00
2018-04-29T06:57:35.478Z,92.90
2018-04-29T06:59:38.804Z,93.10
2018-04-29T07:01:42.162Z,91.10
2018-04-29T07:03:45.485Z,90.90
2018-04-29T07:05:48.807Z,91.30
2018-04-29T07:07:52.146Z,93.00
2018-04-29T07:09:55.481Z,91.30
2018-04-29T07:11:59.692Z,92.00
2018-04-29T07:14:03.053Z,91.90
2018-04-29T07:16:06.629Z,92.50
2018-04-29T07:18:10.021Z,94.30
2018-04-29T07:20:13.366Z,92.30
2018-04-29T07:22:17.479Z,93.90
2018-04-29T07:24:20.817Z,92.20
2018-04-29T07:26:24.271Z,92.40
2018-04-29T07:28:28.371Z,94.70
2018-04-29T07:30:31.731Z,94.70
2018-04-29T07:32:36.020Z,92.90
2018-04-29T07:34:40.096Z,92.90
2018-04-29T07:36:44.409Z,93.50
2018-04-29T07:38:48.829Z,93.30
2018-04-29T07:40:53.809Z,93.30
2018-04-29T07:42:57.156Z,93.40
2018-04-29T07:45:00.744Z,95.20
2018-04-29T07:47:04.152Z,93.60
2018-04-29T07:49:07.529Z,93.80
2018-04-29T07:51:11.645Z,94.90
2018-04-29T07:53:15.744Z,93.40
2018-04-29T07:55:19.841Z,92.80
2018-04-29T07:57:23.169Z,94.60
2018-04-29T07:59:26.504Z,92.90
2018-04-29T08:01:29.841Z,93.70
2018-04-29T08:03:33.181Z,93.70
2018-04-29T08:05:36.742Z,95.80
2018-04-29T08:07:40.071Z,94.10
2018-04-29T08:09:43.418Z,95.20
2018-04-29T08:11:46.789Z,95.10
2018-04-29T08:13:50.903Z,94.30
2018-04-29T08:15:55.000Z,94.00
2018-04-29T08:17:58.321Z,94.10
2018-04-29T08:20:01.661Z,96.00
2018-04-29T08:22:05.055Z,96.00
2018-04-29T08:24:08.450Z,95.30
2018-04-29T08:26:11.783Z,95.00
2018-04-29T08:28:15.117Z,93.40
2018-04-29T08:30:18.447Z,92.50
2018-04-29T08:32:22.583Z,91.60
2018-04-29T08:34:25.950Z,91.60
2018-04-29T08:36:29.343Z,92.00
2018-04-29T08:38:33.452Z,90.60
2018-04-29T08:40:37.534Z,90.30
2018-04-29T08:42:40.887Z,90.30
2018-04-29T08:44:44.216Z,90.40
2018-04-29T08:46:47.576Z,88.90
2018-04-29T08:48:50.910Z,88.90
2018-04-29T08:50:54.306Z,90.70
2018-04-29T08:52:59.185Z,82.00
2018-04-29T08:55:02.674Z,82.50
2018-04-29T08:57:06.149Z,82.40
2018-04-29T08:59:09.491Z,82.70
2018-04-29T09:01:12.826Z,84.80
2018-04-29T09:03:16.955Z,87.50
2018-04-29T09:05:20.279Z,87.40
2018-04-29T09:07:23.690Z,87.00
2018-04-29T09:09:27.869Z,87.50
2018-04-29T09:11:31.309Z,87.90
2018-04-29T09:13:34.704Z,83.00
2018-04-29T09:15:38.858Z,81.90
2018-04-29T09:17:43.237Z,82.00
2018-04-29T09:19:46.892Z,81.30
2018-04-29T09:21:50.246Z,78.20
2018-04-29T09:23:53.696Z,81.60
2018-04-29T09:25:57.156Z,75.90
2018-04-29T09:28:00.588Z,79.30
2018-04-29T09:30:04.741Z,78.00
2018-04-29T09:32:08.160Z,78.00
2018-04-29T09:34:11.629Z,78.40
2018-04-29T09:36:15.800Z,78.50
2018-04-29T09:38:19.161Z,78.30
2018-04-29T09:40:22.553Z,79.40
2018-04-29T09:42:25.897Z,82.40
2018-04-29T09:44:29.240Z,85.90
2018-04-29T09:46:32.620Z,77.40
2018-04-29T09:48:36.216Z,82.40
2018-04-29T09:50:39.799Z,72.70
2018-04-29T09:52:43.236Z,73.60
2018-04-29T09:54:46.614Z,71.80
2018-04-29T09:56:50.025Z,69.20
2018-04-29T09:58:54.713Z,78.00
2018-04-29T10:00:58.136Z,78.80
2018-04-29T10:03:07.658Z,72.90
2018-04-29T10:05:11.007Z,75.30
2018-04-29T10:07:14.401Z,76.80
2018-04-29T10:09:17.733Z,73.30
2018-04-29T10:11:21.385Z,71.80
2018-04-29T10:13:24.725Z,77.30
2018-04-29T10:15:28.218Z,76.40
2018-04-29T10:17:31.582Z,74.80
2018-04-29T10:19:35.012Z,70.80
2018-04-29T10:21:40.305Z,68.80
2018-04-29T10:23:43.661Z,69.50
2018-04-29T10:25:47.246Z,64.50
2018-04-29T10:27:50.720Z,66.50
2018-04-29T10:29:54.139Z,66.20
2018-04-29T10:31:58.944Z,65.20
2018-04-29T10:34:02.445Z,63.70
2018-04-29T10:36:06.783Z,47.80
2018-04-29T10:38:10.290Z,47.60
2018-04-29T10:40:13.962Z,42.20
2018-04-29T10:42:17.418Z,39.30
2018-04-29T10:44:20.752Z,30.40
2018-04-29T10:46:24.300Z,29.50
2018-04-29T10:48:27.691Z,26.20
2018-04-29T10:50:31.010Z,22.40
2018-04-29T10:52:34.930Z,22.50
2018-04-29T10:54:40.035Z,19.80
2018-04-29T10:56:44.457Z,24.00
2018-04-29T10:58:48.579Z,22.80
2018-04-29T11:00:51.839Z,24.70
2018-04-29T11:02:55.246Z,20.90
2018-04-29T11:04:58.605Z,19.00
2018-04-29T11:07:01.977Z,16.80
2018-04-29T11:09:06.064Z,21.10
2018-04-29T11:11:09.415Z,21.10
2018-04-29T11:13:12.759Z,20.30
2018-04-29T11:15:16.875Z,20.40
2018-04-29T11:17:20.992Z,17.90
2018-04-29T11:19:25.178Z,19.80
2018-04-29T11:21:28.876Z,19.70
2018-04-29T11:23:32.572Z,13.20
2018-04-29T11:25:35.905Z,14.70
2018-04-29T11:27:39.230Z,15.30
2018-04-29T11:29:42.557Z,11.40
2018-04-29T11:31:46.744Z,11.60
2018-04-29T11:33:51.165Z,16.60
2018-04-29T11:35:55.398Z,18.00
2018-04-29T11:37:59.512Z,17.90
2018-04-29T11:40:02.945Z,17.80
2018-04-29T11:42:06.257Z,12.70
2018-04-29T11:44:09.660Z,4.80
2018-04-29T11:46:13.055Z,10.20
2018-04-29T11:48:16.590Z,7.90
2018-04-29T11:50:20.001Z,8.10
2018-04-29T11:52:23.444Z,6.50
2018-04-29T11:54:26.941Z,10.80
2018-04-29T11:56:31.092Z,11.10
2018-04-29T11:58:34.624Z,6.60
2018-04-29T12:00:38.076Z,5.90
2018-04-29T12:02:41.382Z,4.60
2018-04-29T12:04:44.748Z,7.50
2018-04-29T12:06:48.873Z,3.80
2018-04-29T12:08:52.375Z,3.70
2018-04-29T12:10:55.685Z,3.20
2018-04-29T12:12:59.001Z,4.20
2018-04-29T12:15:02.361Z,5.40
2018-04-29T12:17:06.124Z,5.70
2018-04-29T12:19:09.548Z,1.00
2018-04-29T12:21:13.736Z,2.00
2018-04-29T12:23:17.407Z,5.20
2018-04-29T12:25:22.010Z,2.40
2018-04-29T12:27:26.309Z,5.60
2018-04-29T12:29:31.300Z,5.50
2018-04-29T12:31:35.173Z,7.80
2018-04-29T12:33:38.547Z,8.80
2018-04-29T12:35:41.945Z,12.00
2018-04-29T12:37:45.469Z,8.00
2018-04-29T12:39:49.619Z,7.70
2018-04-29T12:41:53.709Z,8.30
2018-04-29T12:43:57.164Z,8.10
2018-04-29T12:46:00.477Z,9.20
2018-04-29T12:48:03.836Z,8.40
2018-04-29T12:50:07.198Z,5.70
2018-04-29T12:52:11.437Z,6.40
2018-04-29T12:54:14.756Z,6.50
2018-04-29T12:56:18.076Z,6.80
2018-04-29T12:58:21.436Z,7.10
2018-04-29T13:00:25.033Z,6.20
2018-04-29T13:02:28.329Z,7.70
2018-04-29T13:04:31.670Z,6.60
2018-04-29T13:06:35.025Z,7.30
2018-04-29T13:08:38.353Z,8.80
2018-04-29T13:10:41.686Z,9.60
2018-04-29T13:12:45.930Z,13.80
2018-04-29T13:14:49.272Z,14.10
2018-04-29T13:16:52.602Z,10.90
2018-04-29T13:18:55.923Z,12.70
2018-04-29T13:20:59.436Z,14.10
2018-04-29T13:23:02.778Z,11.00
2018-04-29T13:25:06.132Z,13.70
2018-04-29T13:27:09.894Z,12.20
2018-04-29T13:29:14.169Z,12.10
2018-04-29T13:31:18.306Z,10.30
2018-04-29T13:33:21.636Z,10.60
2018-04-29T13:35:25.749Z,11.50
2018-04-29T13:37:29.118Z,11.60
2018-04-29T13:39:32.554Z,12.50
2018-04-29T13:41:36.399Z,12.10
2018-04-29T13:43:39.764Z,12.50
2018-04-29T13:45:43.144Z,10.60
2018-04-29T13:47:47.328Z,12.90
2018-04-29T13:49:50.652Z,12.50
2018-04-29T13:51:54.840Z,10.40
2018-04-29T13:53:58.194Z,10.40
2018-04-29T13:56:01.572Z,10.60
2018-04-29T13:58:04.973Z,10.20
2018-04-29T14:00:08.290Z,10.20
2018-04-29T14:02:11.648Z,8.00
2018-04-29T14:04:15.021Z,9.00
2018-04-29T14:06:19.110Z,7.80
2018-04-29T14:08:22.442Z,7.80
2018-04-29T14:10:25.877Z,9.40
2018-04-29T14:12:29.981Z,8.00
2018-04-29T14:14:33.294Z,8.10
2018-04-29T14:16:37.706Z,9.30
2018-04-29T14:18:41.126Z,10.90
2018-04-29T14:20:44.514Z,9.60
2018-04-29T14:22:48.619Z,7.40
2018-04-29T14:24:52.036Z,7.30
2018-04-29T14:26:55.371Z,7.00
2018-04-29T14:28:58.723Z,6.00
2018-04-29T14:31:02.089Z,5.00
2018-04-29T14:33:06.164Z,4.80
2018-04-29T14:35:09.477Z,4.60
2018-04-29T14:37:12.837Z,3.60
2018-04-29T14:39:16.151Z,1.50
2018-04-29T14:41:19.515Z,2.50
2018-04-29T14:43:22.865Z,3.30
2018-04-29T14:45:26.246Z,4.00
2018-04-29T14:47:30.402Z,2.90
2018-04-29T14:49:33.744Z,2.90
2018-04-29T14:51:37.846Z,3.60
2018-04-29T14:53:41.339Z,3.30
2018-04-29T14:55:44.653Z,4.90
2018-04-29T14:57:48.748Z,4.80
2018-04-29T14:59:52.883Z,5.40
2018-04-29T15:01:56.323Z,4.80
2018-04-29T15:03:59.745Z,3.30
2018-04-29T15:06:06.072Z,4.20
2018-04-29T15:08:09.402Z,3.90
2018-04-29T15:10:13.494Z,4.40
2018-04-29T15:12:16.846Z,4.60
2018-04-29T15:14:20.177Z,5.20
2018-04-29T15:16:23.695Z,4.40
2018-04-29T15:18:38.749Z,5.40
2018-04-29T15:20:42.820Z,5.80
2018-04-29T15:22:46.139Z,5.60
2018-04-29T15:24:50.251Z,7.70
2018-04-29T15:26:53.643Z,7.20
2018-04-29T15:28:57.750Z,6.30
2018-04-29T15:31:01.061Z,6.40
2018-04-29T15:33:05.125Z,6.80
2018-04-29T15:35:08.446Z,6.80
2018-04-29T15:37:12.899Z,6.10
2018-04-29T15:39:16.241Z,6.60
2018-04-29T15:41:19.752Z,6.30
2018-04-29T15:43:23.837Z,6.60
2018-04-29T15:45:27.232Z,6.80
2018-04-29T15:47:30.587Z,7.70
2018-04-29T15:49:33.910Z,9.00
2018-04-29T15:51:37.231Z,10.60
2018-04-29T15:53:41.317Z,12.40
2018-04-29T15:55:44.664Z,12.50
2018-04-29T15:57:48.025Z,13.60
2018-04-29T15:59:52.145Z,12.40
2018-04-29T16:01:55.558Z,12.40
2018-04-29T16:03:58.897Z,12.70
2018-04-29T16:06:03.000Z,14.50
2018-04-29T16:08:06.332Z,14.20
2018-04-29T16:10:09.695Z,15.50
2018-04-29T16:12:13.798Z,16.60
2018-04-29T16:14:17.903Z,15.50
2018-04-29T16:16:21.227Z,15.60
2018-04-29T16:18:24.573Z,16.10
2018-04-29T16:20:27.912Z,16.20
2018-04-29T16:22:32.002Z,13.90
2018-04-29T16:24:36.110Z,14.50
2018-04-29T16:26:40.219Z,16.00
2018-04-29T16:28:44.320Z,17.40
2018-04-29T16:30:47.645Z,17.40
2018-04-29T16:32:51.016Z,17.40
2018-04-29T16:34:55.120Z,19.40
2018-04-29T16:36:59.229Z,18.90
2018-04-29T16:39:03.319Z,19.40
2018-04-29T16:41:06.661Z,19.30
2018-04-29T16:43:10.808Z,20.10
2018-04-29T16:45:14.148Z,20.20
2018-04-29T16:47:17.459Z,21.20
2018-04-29T16:49:20.776Z,22.50
2018-04-29T16:51:24.135Z,22.40
2018-04-29T16:53:27.453Z,23.60
2018-04-29T16:55:30.809Z,23.50
2018-04-29T16:57:34.168Z,23.90
2018-04-29T16:59:37.507Z,26.00
2018-04-29T17:01:40.884Z,27.80
2018-04-29T17:03:44.264Z,28.90
2018-04-29T17:05:48.344Z,30.70
2018-04-29T17:07:51.721Z,30.60
2018-04-29T17:09:55.050Z,31.40
2018-04-29T17:11:58.399Z,33.80
2018-04-29T17:14:01.717Z,33.70
2018-04-29T17:16:05.044Z,34.80
2018-04-29T17:18:08.359Z,36.00
2018-04-29T17:20:11.691Z,38.10
2018-04-29T17:22:15.796Z,42.50
2018-04-29T17:24:19.376Z,41.80
2018-04-29T17:26:22.735Z,43.00
2018-04-29T17:28:26.058Z,43.60
2018-04-29T17:30:29.452Z,44.90
2018-04-29T17:32:32.813Z,46.00
2018-04-29T17:34:36.142Z,48.90
2018-04-29T17:36:39.486Z,50.10
2018-04-29T17:38:42.875Z,50.30
2018-04-29T17:40:46.226Z,50.60
2018-04-29T17:42:49.564Z,53.00
2018-04-29T17:44:52.907Z,55.30
2018-04-29T17:46:57.270Z,57.40
2018-04-29T17:49:00.662Z,59.00
2018-04-29T17:51:03.982Z,59.70
2018-04-29T17:53:07.325Z,60.10
2018-04-29T17:55:10.668Z,60.60
2018-04-29T17:57:14.096Z,61.50
2018-04-29T17:59:18.222Z,62.00
2018-04-29T18:01:21.601Z,61.90
2018-04-29T18:03:27.222Z,62.50
2018-04-29T18:05:32.362Z,62.20
2018-04-29T18:07:36.172Z,62.50
2018-04-29T18:09:40.290Z,62.20
2018-04-29T18:11:44.395Z,63.20
2018-04-29T18:13:47.738Z,63.00
2018-04-29T18:15:51.071Z,64.20
2018-04-29T18:17:55.229Z,64.10
2018-04-29T18:19:58.654Z,64.10
2018-04-29T18:22:01.989Z,66.20
2018-04-29T18:24:05.406Z,66.40
2018-04-29T18:26:08.861Z,66.80
2018-04-29T18:28:12.949Z,68.70
2018-04-29T18:30:16.378Z,68.80
2018-04-29T18:32:20.311Z,69.70
2018-04-29T18:34:23.752Z,69.50
2018-04-29T18:36:27.094Z,69.50
2018-04-29T18:38:30.569Z,70.30
2018-04-29T18:40:33.940Z,72.00
2018-04-29T18:42:37.293Z,72.60
2018-04-29T18:44:41.554Z,72.10
2018-04-29T18:46:44.936Z,72.30
2018-04-29T18:48:48.287Z,72.40
2018-04-29T18:50:51.974Z,71.30
2018-04-29T18:52:55.366Z,70.20
2018-04-29T18:54:58.903Z,70.00
2018-04-29T18:57:02.241Z,69.80
2018-04-29T18:59:05.594Z,70.20
2018-04-29T19:01:09.010Z,71.00
2018-04-29T19:03:12.376Z,71.50
2018-04-29T19:05:15.719Z,73.60
2018-04-29T19:07:19.116Z,74.20
2018-04-29T19:09:22.480Z,74.90
2018-04-29T19:11:25.843Z,73.50
2018-04-29T19:13:30.016Z,75.10
2018-04-29T19:15:34.196Z,73.00
2018-04-29T19:17:37.558Z,73.00
2018-04-29T19:19:41.979Z,73.50
2018-04-29T19:21:45.389Z,74.40
2018-04-29T19:23:48.959Z,74.50
2018-04-29T19:25:53.130Z,74.50
2018-04-29T19:27:56.582Z,74.50
2018-04-29T19:29:59.916Z,76.00
2018-04-29T19:32:03.232Z,75.90
2018-04-29T19:34:07.406Z,76.10
2018-04-29T19:36:10.799Z,76.90
2018-04-29T19:38:14.130Z,76.20
2018-04-29T19:40:17.614Z,77.70
2018-04-29T19:42:21.010Z,78.20
2018-04-29T19:44:24.336Z,79.50
2018-04-29T19:46:27.703Z,79.70
2018-04-29T19:48:31.045Z,78.90
2018-04-29T19:50:34.370Z,78.80
2018-04-29T19:52:37.707Z,78.70
2018-04-29T19:54:41.039Z,79.00
2018-04-29T19:56:44.389Z,78.50
2018-04-29T19:58:47.713Z,79.50
2018-04-29T20:00:51.043Z,78.70
2018-04-29T20:02:54.697Z,78.10
2018-04-29T20:04:58.098Z,78.10
2018-04-29T20:07:02.384Z,78.50
2018-04-29T20:09:05.744Z,78.40
2018-04-29T20:11:09.145Z,78.70
2018-04-29T20:13:13.285Z,79.40
2018-04-29T20:15:16.624Z,79.30
2018-04-29T20:17:19.988Z,79.90
2018-04-29T20:19:23.319Z,80.00
2018-04-29T20:21:26.647Z,80.80
2018-04-29T20:23:29.967Z,81.20
2018-04-29T20:25:33.300Z,80.00
2018-04-29T20:27:37.445Z,81.30
2018-04-29T20:29:40.773Z,81.60
2018-04-29T20:31:44.171Z,82.00
2018-04-29T20:33:47.519Z,81.30
2018-04-29T20:35:50.909Z,82.00
2018-04-29T20:37:54.429Z,81.10
2018-04-29T20:39:57.889Z,80.80
2018-04-29T20:42:01.260Z,80.60
2018-04-29T20:44:04.608Z,80.60
2018-04-29T20:46:08.219Z,79.70
2018-04-29T20:48:11.561Z,79.20
2018-04-29T20:50:14.949Z,78.80
2018-04-29T20:52:18.483Z,78.90
2018-04-29T20:54:21.902Z,78.50
2018-04-29T20:56:25.225Z,77.90
2018-04-29T20:58:28.604Z,78.10
2018-04-29T21:00:32.825Z,77.30
2018-04-29T21:02:36.921Z,77.60
2018-04-29T21:04:40.682Z,77.60
2018-04-29T21:06:44.032Z,78.10
2018-04-29T21:08:47.534Z,78.00
2018-04-29T21:10:50.935Z,77.50
2018-04-29T21:12:54.460Z,77.50
2018-04-29T21:14:57.894Z,77.50
2018-04-29T21:17:01.998Z,78.20
2018-04-29T21:19:05.353Z,77.40
2018-04-29T21:21:08.727Z,77.80
2018-04-29T21:23:12.109Z,78.20
2018-04-29T21:25:15.444Z,77.60
2018-04-29T21:27:18.769Z,77.40
2018-04-29T21:29:22.848Z,79.80
2018-04-29T21:31:26.166Z,78.60
2018-04-29T21:33:29.533Z,79.50
2018-04-29T21:35:32.879Z,80.50
2018-04-29T21:37:36.201Z,80.60
2018-04-29T21:39:39.514Z,80.80
2018-04-29T21:41:42.826Z,80.00
2018-04-29T21:43:46.177Z,80.20
2018-04-29T21:45:49.525Z,80.10
2018-04-29T21:47:52.877Z,80.80
2018-04-29T21:49:56.209Z,81.40
2018-04-29T21:51:59.537Z,82.20
2018-04-29T21:54:02.900Z,85.00
2018-04-29T21:56:06.225Z,85.80
2018-04-29T21:58:09.549Z,86.60
2018-04-29T22:00:13.645Z,84.60
2018-04-29T22:02:16.973Z,84.40
2018-04-29T22:04:20.375Z,84.00
2018-04-29T22:06:23.957Z,83.90
2018-04-29T22:08:27.322Z,82.60
2018-04-29T22:10:31.445Z,81.00
2018-04-29T22:12:34.780Z,81.50
2018-04-29T22:14:38.134Z,80.30
2018-04-29T22:16:41.456Z,81.00
2018-04-29T22:18:44.785Z,81.60
2018-04-29T22:20:48.872Z,82.00
2018-04-29T22:22:52.196Z,82.60
2018-04-29T22:24:55.557Z,76.40
2018-04-29T22:26:58.897Z,73.70
2018-04-29T22:29:02.228Z,73.00
2018-04-29T22:31:05.554Z,70.60
2018-04-29T22:33:08.885Z,70.60
2018-04-29T22:35:12.204Z,71.00
2018-04-29T22:37:16.296Z,70.90
2018-04-29T22:39:19.594Z,71.20
2018-04-29T22:41:22.956Z,71.50
2018-04-29T22:43:26.329Z,70.90
2018-04-29T22:45:29.693Z,71.50
2018-04-29T22:47:33.013Z,71.40
2018-04-29T22:49:37.103Z,72.30
2018-04-29T22:51:40.427Z,72.40
2018-04-29T22:53:43.758Z,73.40
2018-04-29T22:55:47.097Z,73.80
2018-04-29T22:57:51.174Z,73.20
2018-04-29T22:59:54.500Z,72.30
2018-04-29T23:01:57.817Z,73.60
2018-04-29T23:04:01.237Z,73.70
2018-04-29T23:06:04.653Z,70.60
2018-04-29T23:08:08.742Z,70.30
2018-04-29T23:10:12.083Z,69.60
2018-04-29T23:12:15.436Z,69.20
2018-04-29T23:14:18.833Z,70.40
2018-04-29T23:16:22.161Z,68.70
2018-04-29T23:18:25.513Z,68.70
2018-04-29T23:20:28.849Z,67.20
2018-04-29T23:22:32.207Z,65.10
2018-04-29T23:24:36.319Z,65.80
2018-04-29T23:26:40.448Z,65.40
2018-04-29T23:28:43.770Z,65.40
2018-04-29T23:30:47.108Z,65.60
2018-04-29T23:32:50.449Z,64.90
2018-04-29T23:34:53.828Z,65.50
2018-04-29T23:36:57.169Z,65.10
2018-04-29T23:39:00.506Z,66.20
2018-04-29T23:41:03.844Z,64.90
2018-04-29T23:43:07.169Z,65.90
2018-04-29T23:45:11.277Z,66.50
2018-04-29T23:47:15.383Z,66.70
2018-04-29T23:49:19.519Z,65.30
2018-04-29T23:51:22.866Z,65.20
2018-04-29T23:53:26.180Z,65.40
2018-04-29T23:55:30.276Z,65.40
2018-04-29T23:57:33.609Z,65.90
2018-04-29T23:59:37.028Z,65.10
